»·PEaware :: N33AJ KSNA-KAVX

N33AJ :: KSNA-KAVX

FLIGHT INFORMATION

Flight Status: Arrived
Operator: Privately registered:
United States
More flights under this callsign
Pilot: Arthur Jones (15170)
Aircraft: BEECH AIRCRAFT A90-E90 KING AIR
(BE9L)
More flights by this aircraft type
Origin: KSNA John Wayne-Orange Co
United States
Destination: KAVX Catalina
United States
More flights between these airports :: More routes between these airports
Route: +SLI V21 SXC
File this flight plan on PilotEdge
Remarks:
Altitude:
(Current/Filed)
0ft
Speed:
(Current/Filed)
0kts
Departed: 12-Aug-17 11:28 AM
Arrived: 12-Aug-17 12:17 PM
Distance/Time
Traveled:
32nm/0:49
Distance/Time
To Go:
Arrived

Flight Plot

Page will automatically refresh every two minutes.


Map Options




Map Legend


Flown Route
Filed Route
Departure Airport
Arrival Airport
Navaid (VOR, NDB)
Fix

Horizontal Profiles

Position Reports

Time Latitude Longitude Heading Altitude Ground
Speed
12-Aug-17 11:15 33.668895 -117.875316 30 59ft 0kts
12-Aug-17 11:16 33.668895 -117.875316 30 59ft 0kts
12-Aug-17 11:17 33.668895 -117.875316 30 59ft 0kts
12-Aug-17 11:18 33.668895 -117.875316 30 59ft 0kts
12-Aug-17 11:19 33.668895 -117.875316 30 59ft 0kts
12-Aug-17 11:20 33.668895 -117.875316 30 59ft 0kts
12-Aug-17 11:21 33.668895 -117.875316 30 59ft 0kts
12-Aug-17 11:22 33.668895 -117.875316 30 59ft 0kts
12-Aug-17 11:23 33.668895 -117.875316 30 59ft 0kts
12-Aug-17 11:24 33.668895 -117.875316 30 59ft 0kts
12-Aug-17 11:25 33.669643 -117.874159 29 59ft 17kts
12-Aug-17 11:26 33.675350 -117.870541 25 59ft 24kts
12-Aug-17 11:27 33.677824 -117.868948 30 59ft 0kts
12-Aug-17 11:28 33.679961 -117.867776 20 59ft 19kts
12-Aug-17 11:29 33.681143 -117.866614 86 59ft 0kts
12-Aug-17 11:30 33.681149 -117.866499 86 59ft 5kts
12-Aug-17 11:31 33.678114 -117.867271 205 59ft 80kts
12-Aug-17 11:32 33.654791 -117.882416 211 1918ft 114kts
12-Aug-17 11:33 33.612429 -117.911681 209 2092ft 211kts
12-Aug-17 11:34 33.560707 -117.947294 209 2651ft 208kts
12-Aug-17 11:35 33.668875 -117.875330 27 59ft 1kts
12-Aug-17 11:36 33.668896 -117.875317 27 59ft 0kts
12-Aug-17 11:37 33.668896 -117.875317 27 59ft 0kts
12-Aug-17 11:38 33.668896 -117.875317 27 59ft 0kts
12-Aug-17 11:39 33.668896 -117.875317 27 59ft 0kts
12-Aug-17 11:40 33.668896 -117.875317 27 59ft 0kts
12-Aug-17 11:41 33.668896 -117.875317 27 59ft 0kts
12-Aug-17 11:42 33.668860 -117.874712 41 59ft 11kts
12-Aug-17 11:43 33.673843 -117.871500 28 59ft 25kts
12-Aug-17 11:44 33.680229 -117.867686 28 59ft 23kts
12-Aug-17 11:45 33.681217 -117.866454 27 59ft 5kts
12-Aug-17 11:46 33.681889 -117.866048 103 59ft 0kts
12-Aug-17 11:47 33.681889 -117.866048 103 59ft 0kts
12-Aug-17 11:48 33.681889 -117.866048 103 59ft 0kts
12-Aug-17 11:49 33.681889 -117.866048 103 59ft 0kts
12-Aug-17 11:50 33.681278 -117.866423 141 59ft 6kts
12-Aug-17 11:51 33.681242 -117.866387 139 59ft 2kts
12-Aug-17 11:52 33.678406 -117.867029 205 59ft 84kts
12-Aug-17 11:53 33.654053 -117.893985 232 1658ft 147kts
12-Aug-17 11:54 33.623658 -117.940945 232 2005ft 213kts
12-Aug-17 11:55 33.585826 -117.999107 232 1999ft 225kts
12-Aug-17 11:56 33.547431 -118.058273 231 2262ft 216kts
12-Aug-17 11:57 33.512209 -118.112310 232 3392ft 199kts
12-Aug-17 11:58 33.477314 -118.165917 233 4002ft 218kts
12-Aug-17 11:59 33.438813 -118.224893 232 3965ft 228kts
12-Aug-17 12:00 33.402687 -118.280358 232 3954ft 176kts
12-Aug-17 12:01 33.406912 -118.324348 243 3965ft 134kts
12-Aug-17 12:02 33.393104 -118.362328 250 3957ft 116kts
12-Aug-17 12:03 33.380945 -118.397702 245 3967ft 118kts
12-Aug-17 12:04 33.395809 -118.417013 21 3970ft 106kts
12-Aug-17 12:05 33.425290 -118.409067 6 3971ft 116kts
12-Aug-17 12:06 33.459688 -118.412384 358 3966ft 131kts
12-Aug-17 12:07 33.496077 -118.414447 324 3964ft 138kts
12-Aug-17 12:08 33.525933 -118.443963 347 3959ft 138kts
12-Aug-17 12:09 33.532477 -118.414608 137 3969ft 143kts
12-Aug-17 12:10 33.491995 -118.401994 186 3325ft 176kts
12-Aug-17 12:11 33.444091 -118.409560 185 2627ft 170kts
12-Aug-17 12:12 33.407515 -118.431760 249 2346ft 147kts
12-Aug-17 12:13 33.391283 -118.472140 209 2339ft 129kts
12-Aug-17 12:14 33.361292 -118.458360 142 2343ft 125kts
12-Aug-17 12:15 33.357737 -118.425279 52 2347ft 119kts
12-Aug-17 12:16 33.377789 -118.393046 52 2348ft 122kts
12-Aug-17 12:17 33.396110 -118.363286 56 2336ft 98kts
12-Aug-17 12:18 33.415821 -118.360161 323 2315ft 102kts
12-Aug-17 12:19 33.425389 -118.396953 238 2137ft 146kts
12-Aug-17 12:20 33.404830 -118.415080 169 1542ft 0kts
12-Aug-17 12:21 33.404830 -118.415080 169 1542ft 0kts
12-Aug-17 12:22 33.404830 -118.415080 169 1542ft 0kts
12-Aug-17 12:23 33.404830 -118.415080 169 1542ft 0kts

Navigation Log

Ident Type
1. KSNA Airport
2. SLI Navaid
3. SXC Navaid
4. KAVX Airport